Time;durP1;ratioP1;P1;durP2;ratioP2;P2;SDS_P1;SDS_P2;PMS_P1;PMS_P2;Temp;Humidity;BMP_temperature;BMP_pressure;BME280_temperature;BME280_humidity;BME280_pressure;Samples;Min_cycle;Max_cycle;Signal;HPM_P1;HPM_P2
2022/04/30 00:02:00;;;;;;;10.68;2.95;;;;;;;17.18;37.06;102515.25;5024310;28;20017;-65
2022/04/30 00:04:25;;;;;;;7.35;3.53;;;;;;;17.12;35.85;102503.09;5023102;28;20586;-66
2022/04/30 00:06:51;;;;;;;4.78;2.83;;;;;;;17.13;37.28;102509.38;5022072;28;20091;-66
2022/04/30 00:09:16;;;;;;;6.47;2.67;;;;;;;17.09;37.15;102510.63;5023853;28;20490;-65
2022/04/30 00:11:41;;;;;;;6.03;3.00;;;;;;;17.07;36.65;102507.19;5022354;28;20482;-65
2022/04/30 00:14:07;;;;;;;13.13;3.00;;;;;;;17.06;36.99;102510.88;5022587;28;20026;-66
2022/04/30 00:16:32;;;;;;;11.80;3.40;;;;;;;17.00;37.35;102506.84;5023771;28;20025;-65
2022/04/30 00:18:59;;;;;;;6.22;3.00;;;;;;;16.99;37.17;102509.69;5024078;28;20491;-65
2022/04/30 00:21:24;;;;;;;3.88;2.72;;;;;;;16.98;37.52;102510.66;5023069;28;20387;-66
2022/04/30 00:23:49;;;;;;;5.93;2.97;;;;;;;16.96;37.04;102507.25;5021848;28;20025;-65
2022/04/30 00:26:15;;;;;;;7.03;2.88;;;;;;;16.93;37.07;102504.78;5023954;28;20445;-66
2022/04/30 00:28:41;;;;;;;5.45;3.25;;;;;;;16.90;36.28;102511.31;5021787;28;20036;-66
2022/04/30 00:31:07;;;;;;;8.75;3.38;;;;;;;16.89;36.38;102510.47;5022313;28;20037;-66
2022/04/30 00:33:32;;;;;;;8.48;3.28;;;;;;;16.87;36.29;102507.03;5006042;28;20029;-65
2022/04/30 00:35:59;;;;;;;6.03;3.22;;;;;;;16.83;36.32;102505.56;5000494;28;20066;-65
2022/04/30 00:38:25;;;;;;;8.75;3.60;;;;;;;16.80;37.57;102511.25;5003015;28;20022;-65
2022/04/30 00:40:50;;;;;;;7.05;3.17;;;;;;;16.78;36.07;102513.22;5003615;28;20387;-66
2022/04/30 00:43:16;;;;;;;7.20;3.22;;;;;;;16.71;37.64;102506.59;5001723;28;20061;-65
2022/04/30 00:45:48;;;;;;;6.35;3.35;;;;;;;16.75;36.50;102512.63;5003442;28;20041;-64
2022/04/30 00:48:14;;;;;;;14.90;4.00;;;;;;;16.72;38.19;102502.88;5001294;28;20030;-66
2022/04/30 00:50:39;;;;;;;7.38;3.65;;;;;;;16.70;36.74;102504.88;5003321;28;20030;-65
2022/04/30 00:53:05;;;;;;;8.20;3.20;;;;;;;16.67;37.74;102499.72;5005524;28;20058;-65
2022/04/30 00:55:31;;;;;;;8.88;3.47;;;;;;;16.65;37.84;102504.41;5013973;28;20046;-66
2022/04/30 00:58:00;;;;;;;7.40;3.70;;;;;;;16.64;37.79;102510.78;5013730;28;20479;-65
2022/04/30 01:00:27;;;;;;;5.78;3.17;;;;;;;16.63;37.08;102506.38;5013763;28;20045;-66
2022/04/30 01:02:52;;;;;;;7.40;3.20;;;;;;;16.61;36.93;102505.63;5013750;28;20475;-65
2022/04/30 01:05:17;;;;;;;5.38;3.38;;;;;;;16.59;37.55;102504.91;5045527;28;20024;-65
2022/04/30 01:07:43;;;;;;;6.32;4.05;;;;;;;16.57;36.87;102501.47;5013663;28;20021;-65
2022/04/30 01:10:09;;;;;;;6.57;3.22;;;;;;;16.55;36.97;102511.56;5013849;28;20373;-65
2022/04/30 01:12:35;;;;;;;16.27;4.60;;;;;;;16.52;37.10;102498.25;5013675;28;20033;-65
2022/04/30 01:15:04;;;;;;;7.55;4.00;;;;;;;16.52;37.14;102506.38;5045601;28;20026;-65
2022/04/30 01:17:29;;;;;;;9.18;4.35;;;;;;;16.51;37.12;102515.47;5013760;28;20487;-65
2022/04/30 01:19:54;;;;;;;8.43;3.53;;;;;;;16.47;36.81;102519.41;5013494;28;20029;-66
2022/04/30 01:22:23;;;;;;;9.32;3.15;;;;;;;16.46;37.52;102501.47;5013409;28;20022;-65
2022/04/30 01:24:49;;;;;;;8.20;3.63;;;;;;;16.44;37.43;102508.00;5013541;28;20084;-66
2022/04/30 01:27:16;;;;;;;10.23;4.15;;;;;;;16.44;38.40;102508.88;5012408;28;20022;-66
2022/04/30 01:29:41;;;;;;;9.23;3.55;;;;;;;16.44;37.30;102503.44;5045171;28;20534;-65
2022/04/30 01:37:38;;;;;;;10.52;3.95;;;;;;;16.39;38.35;102494.00;5033275;28;20083;-65
2022/04/30 01:40:12;;;;;;;5.63;3.42;;;;;;;16.37;38.06;102496.81;5033054;28;20029;-66
2022/04/30 01:42:43;;;;;;;7.00;3.40;;;;;;;16.35;38.27;102501.50;5032931;28;20017;-65
2022/04/30 01:45:09;;;;;;;5.72;3.17;;;;;;;16.33;38.22;102503.47;5032880;28;20021;-65
2022/04/30 01:47:36;;;;;;;7.32;3.40;;;;;;;16.32;38.93;102501.75;5048565;28;20022;-66
2022/04/30 01:50:03;;;;;;;6.15;3.50;;;;;;;16.30;37.52;102501.00;5032991;28;20040;-65
2022/04/30 01:52:29;;;;;;;7.55;3.20;;;;;;;16.28;38.55;102497.56;5032703;28;20422;-66
2022/04/30 01:54:55;;;;;;;6.60;3.25;;;;;;;16.26;37.49;102499.53;5032704;28;20029;-66
2022/04/30 01:57:25;;;;;;;11.15;3.35;;;;;;;16.24;37.26;102501.50;5032845;28;20074;-65
2022/04/30 01:59:51;;;;;;;5.32;3.08;;;;;;;16.20;37.30;102506.28;5033170;28;20432;-64
2022/04/30 02:02:18;;;;;;;6.28;3.17;;;;;;;16.20;38.73;102500.03;5035489;28;20021;-65
2022/04/30 02:04:43;;;;;;;7.00;2.95;;;;;;;16.17;38.26;102500.28;5019085;28;20398;-65
2022/04/30 02:07:10;;;;;;;11.15;3.20;;;;;;;16.15;37.78;102502.25;5051840;28;20028;-65
2022/04/30 02:09:35;;;;;;;8.20;3.00;;;;;;;16.13;38.51;102496.13;5036407;28;20552;-65
2022/04/30 02:12:02;;;;;;;8.95;3.42;;;;;;;16.09;38.62;102487.38;5036290;28;20104;-66
2022/04/30 02:14:31;;;;;;;8.82;2.75;;;;;;;16.06;37.60;102493.03;5036056;28;20029;-65
2022/04/30 02:17:06;;;;;;;7.68;3.08;;;;;;;16.04;39.34;102494.16;5036254;28;20018;-65
2022/04/30 02:20:18;;;;;;;5.45;3.00;;;;;;;16.01;37.51;102488.97;5018546;28;20032;-65
2022/04/30 02:22:19;;;;;;;6.10;3.05;;;;;;;15.96;38.40;102491.19;5035822;28;20024;-65
2022/04/30 02:24:45;;;;;;;5.78;2.88;;;;;;;15.93;38.50;102486.91;5051941;28;20035;-64
2022/04/30 02:27:12;;;;;;;6.32;3.03;;;;;;;15.92;38.74;102495.97;5036096;28;20517;-65
2022/04/30 02:29:38;;;;;;;7.40;3.05;;;;;;;15.88;37.90;102489.13;5035960;28;20470;-66
2022/04/30 02:32:04;;;;;;;5.75;2.83;;;;;;;15.88;38.20;102496.38;5017921;28;20394;-66
2022/04/30 02:34:29;;;;;;;4.75;2.80;;;;;;;15.85;38.72;102493.91;5018228;28;20021;-65
2022/04/30 02:36:54;;;;;;;5.38;2.85;;;;;;;15.83;38.11;102495.88;5031439;28;20060;-66
2022/04/30 02:39:19;;;;;;;9.63;2.45;;;;;;;15.80;39.23;102490.72;5035576;28;20063;-65
2022/04/30 02:41:45;;;;;;;6.50;2.67;;;;;;;15.78;38.77;102488.13;5035585;28;20060;-66
2022/04/30 02:44:10;;;;;;;4.93;2.63;;;;;;;15.78;39.30;102489.94;5035512;28;20017;-66
2022/04/30 02:46:36;;;;;;;6.53;2.97;;;;;;;15.73;38.51;102483.09;5035855;28;20083;-65
2022/04/30 02:49:01;;;;;;;7.40;2.95;;;;;;;15.71;37.80;102479.66;5035550;28;20490;-65
2022/04/30 02:51:26;;;;;;;9.18;2.63;;;;;;;15.68;38.22;102479.91;5035580;28;20455;-65
2022/04/30 02:53:54;;;;;;;8.30;3.20;;;;;;;15.66;39.73;102484.53;5035664;28;20095;-65
2022/04/30 02:56:19;;;;;;;3.92;2.75;;;;;;;15.63;39.35;102479.38;5035749;28;20052;-66
2022/04/30 03:01:29;;;;;;;8.30;2.72;;;;;;;15.57;39.29;102479.03;5035375;28;20028;-65
2022/04/30 03:03:54;;;;;;;10.65;2.97;;;;;;;15.52;39.19;102476.66;5035271;28;20033;-65
2022/04/30 03:06:19;;;;;;;4.72;2.67;;;;;;;15.49;39.72;102474.25;5035496;28;20532;-66
2022/04/30 03:08:47;;;;;;;9.60;2.83;;;;;;;15.47;38.34;102473.47;5035306;28;20033;-66
2022/04/30 03:11:13;;;;;;;5.43;2.90;;;;;;;15.46;38.64;102478.97;5035001;28;20029;-66
2022/04/30 03:13:38;;;;;;;4.95;2.70;;;;;;;15.43;38.68;102480.09;5017378;28;20036;-65
2022/04/30 03:21:44;;;;;;;3.60;2.60;;;;;;;15.32;39.34;102479.19;5048465;28;20048;-65
2022/04/30 03:24:11;;;;;;;7.15;2.60;;;;;;;15.29;38.47;102480.28;5034885;28;20028;-65
2022/04/30 03:26:36;;;;;;;3.45;2.25;;;;;;;15.25;39.39;102480.63;5017375;28;20117;-64
2022/04/30 03:29:03;;;;;;;3.83;2.78;;;;;;;15.24;39.13;102474.41;5034811;28;20463;-65
2022/04/30 03:31:30;;;;;;;5.05;2.40;;;;;;;15.23;39.54;102486.16;5034909;28;20486;-65
2022/04/30 03:33:56;;;;;;;4.57;2.63;;;;;;;15.23;39.51;102480.75;5034863;28;20108;-66
2022/04/30 03:36:21;;;;;;;4.97;3.00;;;;;;;15.22;40.07;102483.56;5034584;28;20447;-65
2022/04/30 03:38:47;;;;;;;6.88;2.58;;;;;;;15.21;39.94;102482.72;5034418;28;20558;-66
2022/04/30 03:41:12;;;;;;;5.88;3.17;;;;;;;15.20;39.73;102475.59;5034808;28;20033;-66
2022/04/30 03:43:38;;;;;;;3.00;2.05;;;;;;;15.19;39.87;102473.03;5034639;28;20017;-65
2022/04/30 03:46:05;;;;;;;6.70;2.30;;;;;;;15.18;39.66;102469.47;5034463;28;20390;-65
2022/04/30 03:48:30;;;;;;;11.55;2.60;;;;;;;15.17;38.74;102470.44;5034660;28;20022;-66
2022/04/30 03:50:57;;;;;;;6.18;2.35;;;;;;;15.14;38.95;102473.38;5034424;28;20043;-65
2022/04/30 03:53:22;;;;;;;7.53;2.92;;;;;;;15.13;39.23;102471.66;5034709;28;20065;-65
2022/04/30 03:55:48;;;;;;;5.57;2.15;;;;;;;15.10;38.79;102471.91;5034307;28;20065;-65
2022/04/30 03:58:13;;;;;;;8.32;2.90;;;;;;;15.08;39.98;102471.13;5034129;28;20375;-65
2022/04/30 04:00:38;;;;;;;9.65;2.40;;;;;;;15.06;39.88;102473.97;5034236;28;20430;-65
2022/04/30 04:03:04;;;;;;;4.63;3.08;;;;;;;15.02;39.73;102474.31;5034164;28;20045;-66
2022/04/30 04:05:29;;;;;;;7.57;2.83;;;;;;;15.01;39.86;102470.78;5034227;28;20573;-65
2022/04/30 04:07:57;;;;;;;5.82;2.50;;;;;;;14.99;39.52;102474.56;5034058;28;20108;-65
2022/04/30 04:10:22;;;;;;;5.00;2.55;;;;;;;14.97;39.63;102479.19;5033912;28;20124;-64
2022/04/30 04:12:47;;;;;;;4.97;2.13;;;;;;;14.93;39.56;102478.59;5034024;28;20531;-64
2022/04/30 04:17:56;;;;;;;8.75;3.03;;;;;;;14.90;39.79;102481.53;5033981;28;20043;-64
2022/04/30 04:20:24;;;;;;;10.20;3.30;;;;;;;14.85;39.71;102483.69;5034141;28;20100;-65
2022/04/30 04:22:51;;;;;;;9.10;2.90;;;;;;;14.84;39.99;102483.81;5034145;28;20041;-65
2022/04/30 04:28:00;;;;;;;8.52;2.88;;;;;;;14.79;39.07;102489.56;5033741;28;20116;-65
2022/04/30 04:30:28;;;;;;;8.00;3.25;;;;;;;14.79;40.12;102503.06;5016346;28;20450;-65
2022/04/30 04:32:54;;;;;;;8.30;3.25;;;;;;;14.78;38.88;102500.47;5033451;28;20017;-65
2022/04/30 04:35:19;;;;;;;8.07;3.03;;;;;;;14.79;39.41;102496.78;5033788;28;20061;-64
2022/04/30 04:37:45;;;;;;;8.57;3.03;;;;;;;14.80;39.68;102503.91;5015903;28;20041;-65
2022/04/30 04:40:12;;;;;;;14.15;3.53;;;;;;;14.80;40.33;102493.97;5033637;28;20037;-66
2022/04/30 04:42:39;;;;;;;4.55;2.70;;;;;;;14.83;39.15;102498.28;5033619;28;20017;-65
2022/04/30 04:45:05;;;;;;;8.50;3.65;;;;;;;14.86;39.87;102500.75;5033479;28;20045;-65
2022/04/30 04:47:30;;;;;;;8.38;3.50;;;;;;;14.88;40.25;102509.59;5033428;28;20048;-65
2022/04/30 04:49:55;;;;;;;8.27;2.80;;;;;;;14.90;40.34;102499.53;5015685;28;20471;-65
2022/04/30 04:52:21;;;;;;;7.40;3.40;;;;;;;14.93;40.58;102504.72;5015787;28;20032;-66
2022/04/30 04:54:47;;;;;;;9.52;3.33;;;;;;;14.98;39.96;102499.81;5033567;28;20109;-66
2022/04/30 04:57:12;;;;;;;6.65;3.10;;;;;;;15.03;39.18;102506.59;5033408;28;20025;-65
2022/04/30 04:59:38;;;;;;;6.85;3.05;;;;;;;15.08;40.48;102506.22;5033492;28;20053;-65
2022/04/30 05:02:03;;;;;;;6.10;3.65;;;;;;;15.15;39.79;102513.75;5033605;28;20021;-65
2022/04/30 05:04:29;;;;;;;6.45;3.40;;;;;;;15.22;39.91;102513.25;5033750;28;20025;-65
2022/04/30 05:06:54;;;;;;;5.70;3.28;;;;;;;15.29;39.87;102518.09;5033395;28;20068;-65
2022/04/30 05:09:20;;;;;;;8.30;3.42;;;;;;;15.37;39.12;102526.47;5033633;28;20430;-65
2022/04/30 05:11:45;;;;;;;11.23;3.42;;;;;;;15.47;40.15;102527.50;5033517;28;20036;-65
2022/04/30 05:14:10;;;;;;;10.57;3.50;;;;;;;15.54;38.67;102519.78;5033306;28;20104;-66
2022/04/30 05:16:36;;;;;;;7.75;3.30;;;;;;;15.59;38.99;102513.03;5033628;28;20036;-64
2022/04/30 05:19:01;;;;;;;7.90;3.17;;;;;;;15.67;40.16;102523.22;5015596;28;20026;-66
2022/04/30 05:21:27;;;;;;;6.78;3.38;;;;;;;15.77;38.75;102517.97;5033444;28;20514;-65
2022/04/30 05:23:52;;;;;;;4.35;3.10;;;;;;;15.87;39.60;102518.97;5048120;28;20158;-65
2022/04/30 05:26:17;;;;;;;9.27;3.65;;;;;;;15.98;38.90;102527.06;5040406;28;20052;-65
2022/04/30 05:28:43;;;;;;;9.48;3.50;;;;;;;16.08;38.85;102528.06;5033433;28;20390;-65
2022/04/30 05:31:09;;;;;;;5.75;3.45;;;;;;;16.18;40.34;102534.44;5036655;28;20025;-65
2022/04/30 05:33:35;;;;;;;8.20;3.40;;;;;;;16.25;38.51;102535.66;5033067;28;20437;-66
2022/04/30 05:36:02;;;;;;;6.50;3.45;;;;;;;16.32;39.75;102531.50;5016251;28;20029;-65
2022/04/30 05:38:27;;;;;;;8.63;4.60;;;;;;;16.36;38.89;102526.69;5036784;28;20042;-65
2022/04/30 05:40:52;;;;;;;9.55;3.78;;;;;;;16.37;38.82;102534.69;5019200;28;20022;-65
2022/04/30 05:43:18;;;;;;;6.88;3.47;;;;;;;16.49;39.57;102539.09;5036885;28;20021;-65
2022/04/30 05:45:43;;;;;;;6.68;3.40;;;;;;;16.66;39.29;102535.91;5036971;28;20109;-65
2022/04/30 05:48:08;;;;;;;5.00;3.33;;;;;;;16.75;39.95;102535.13;5019090;28;20017;-65
2022/04/30 05:50:34;;;;;;;9.48;3.85;;;;;;;16.80;38.78;102527.50;5036640;28;20017;-66
2022/04/30 05:52:59;;;;;;;10.02;3.92;;;;;;;16.85;38.50;102525.25;5036665;28;20075;-66
2022/04/30 05:55:25;;;;;;;8.80;3.95;;;;;;;16.92;38.72;102522.88;5037659;28;20029;-65
2022/04/30 05:57:50;;;;;;;8.23;3.65;;;;;;;17.08;38.70;102519.75;5036772;28;20086;-66
2022/04/30 06:00:16;;;;;;;8.60;3.67;;;;;;;17.21;39.30;102520.41;5036621;28;20055;-65
2022/04/30 06:02:42;;;;;;;13.73;4.32;;;;;;;17.34;38.35;102529.22;5038875;28;20465;-65
2022/04/30 06:05:08;;;;;;;8.50;3.95;;;;;;;17.48;38.32;102529.75;5056660;28;20027;-66
2022/04/30 06:07:34;;;;;;;6.72;3.63;;;;;;;17.60;39.21;102525.16;5056264;28;20390;-65
2022/04/30 06:09:59;;;;;;;10.80;3.47;;;;;;;17.69;39.05;102527.06;5056311;28;20033;-65
2022/04/30 06:12:24;;;;;;;5.40;3.30;;;;;;;17.83;38.03;102524.00;5038606;28;20036;-65
2022/04/30 06:14:49;;;;;;;8.50;3.63;;;;;;;18.03;38.46;102527.69;5056454;28;20031;-65
2022/04/30 06:17:15;;;;;;;8.27;3.97;;;;;;;18.17;38.60;102524.59;5056444;28;20055;-65
2022/04/30 06:19:40;;;;;;;7.20;3.85;;;;;;;18.27;38.20;102535.47;5056372;28;20035;-65
2022/04/30 06:22:06;;;;;;;8.25;3.83;;;;;;;18.28;38.63;102538.06;5056429;28;20078;-65
2022/04/30 06:24:31;;;;;;;8.48;4.10;;;;;;;18.38;38.98;102530.81;5056386;28;20024;-64
2022/04/30 06:26:56;;;;;;;7.72;3.88;;;;;;;18.42;38.42;102534.97;5056838;28;20104;-66
2022/04/30 06:29:22;;;;;;;9.82;3.83;;;;;;;18.54;37.91;102541.16;5056195;28;20041;-66
2022/04/30 06:31:50;;;;;;;7.75;4.57;;;;;;;18.60;38.05;102543.31;5056024;28;20108;-65
2022/04/30 06:34:16;;;;;;;6.25;3.95;;;;;;;18.63;38.59;102534.91;5056254;28;20436;-66
2022/04/30 06:36:41;;;;;;;7.28;4.05;;;;;;;18.63;37.78;102540.31;5056022;28;20025;-65
2022/04/30 06:39:07;;;;;;;8.10;4.00;;;;;;;18.64;38.24;102536.63;5055592;28;20541;-65
2022/04/30 06:41:33;;;;;;;6.93;3.75;;;;;;;18.70;39.13;102546.94;5055967;28;20024;-66
2022/04/30 06:43:58;;;;;;;10.00;3.85;;;;;;;18.68;37.90;102554.34;5055823;28;20096;-66
2022/04/30 06:46:24;;;;;;;6.88;3.42;;;;;;;18.61;37.95;102542.34;5037853;28;20020;-65
2022/04/30 06:48:49;;;;;;;6.95;4.25;;;;;;;18.58;38.22;102548.03;5055378;28;20029;-65
2022/04/30 06:51:14;;;;;;;8.25;4.00;;;;;;;18.64;37.98;102547.47;5055643;28;20040;-66
2022/04/30 06:59:11;;;;;;;8.20;3.10;;;;;;;19.43;37.73;102534.69;5055707;28;20036;-65
2022/04/30 07:02:23;;;;;;;5.47;3.00;;;;;;;19.75;37.27;102537.91;5055945;28;20028;-65
2022/04/30 07:04:24;;;;;;;5.60;2.83;;;;;;;20.08;36.40;102531.06;5044804;28;20452;-65
2022/04/30 07:06:50;;;;;;;6.40;3.45;;;;;;;20.07;37.04;102535.66;5055308;28;20060;-66
2022/04/30 07:09:16;;;;;;;5.38;2.97;;;;;;;20.02;37.40;102537.97;5055337;28;20371;-65
2022/04/30 07:11:41;;;;;;;7.75;3.55;;;;;;;19.88;37.22;102541.16;5055246;28;20032;-64
2022/04/30 07:14:07;;;;;;;7.68;4.30;;;;;;;19.71;37.75;102547.34;5055543;28;20025;-65
2022/04/30 07:16:32;;;;;;;8.57;2.72;;;;;;;19.57;37.53;102542.41;5037486;28;20029;-65
2022/04/30 07:19:00;;;;;;;11.55;4.35;;;;;;;19.76;36.76;102553.25;5055963;28;20505;-65
2022/04/30 07:21:27;;;;;;;5.53;3.20;;;;;;;19.83;37.20;102546.19;5056746;28;20028;-64
2022/04/30 07:23:53;;;;;;;6.78;3.08;;;;;;;19.66;37.43;102544.22;5055952;28;20057;-64
2022/04/30 07:26:18;;;;;;;5.65;3.55;;;;;;;19.49;37.32;102545.81;5055520;28;20078;-65
2022/04/30 07:28:44;;;;;;;6.90;3.47;;;;;;;19.45;37.42;102549.00;5055461;28;20028;-65
2022/04/30 07:31:09;;;;;;;8.05;3.05;;;;;;;19.58;37.27;102544.97;5055383;28;20033;-64
2022/04/30 07:33:34;;;;;;;6.78;3.42;;;;;;;19.70;36.43;102553.81;5037156;28;20025;-64
2022/04/30 07:36:00;;;;;;;4.60;2.72;;;;;;;19.55;36.98;102549.81;5055058;28;20036;-63
2022/04/30 07:38:25;;;;;;;5.45;2.20;;;;;;;19.55;37.22;102555.25;5054764;28;20053;-64
2022/04/30 07:40:54;;;;;;;6.88;2.58;;;;;;;19.76;36.33;102555.97;5050274;28;20476;-64
2022/04/30 07:43:19;;;;;;;6.75;3.38;;;;;;;20.27;35.60;102553.66;5034917;28;20026;-64
2022/04/30 07:45:45;;;;;;;4.40;2.90;;;;;;;20.65;34.92;102551.75;5034993;28;20025;-64
2022/04/30 07:48:10;;;;;;;10.73;3.00;;;;;;;20.38;36.35;102549.03;5034939;28;20035;-64
2022/04/30 07:50:36;;;;;;;4.47;2.50;;;;;;;20.22;36.51;102547.78;5035138;28;20025;-63
2022/04/30 07:53:06;;;;;;;7.47;1.95;;;;;;;20.13;35.95;102545.06;5034259;28;20052;-64
2022/04/30 07:55:31;;;;;;;5.85;2.53;;;;;;;20.05;35.88;102548.56;5036927;28;20029;-63
2022/04/30 07:57:58;;;;;;;3.33;2.30;;;;;;;19.99;35.88;102549.13;5034774;28;20031;-64
2022/04/30 08:00:24;;;;;;;4.32;2.13;;;;;;;19.95;35.79;102546.88;5033868;28;20026;-64
2022/04/30 08:02:50;;;;;;;4.20;2.72;;;;;;;19.85;35.99;102541.44;5037734;28;20013;-64
2022/04/30 08:05:15;;;;;;;2.58;1.80;;;;;;;19.74;35.88;102545.22;5054788;28;20036;-64
2022/04/30 08:07:41;;;;;;;5.65;2.30;;;;;;;19.79;35.51;102547.50;5053549;28;20470;-64
2022/04/30 08:10:07;;;;;;;6.15;2.33;;;;;;;19.67;36.01;102543.22;5034260;28;20017;-65
2022/04/30 08:12:32;;;;;;;4.53;1.90;;;;;;;19.84;35.21;102542.47;5034606;28;20036;-64
2022/04/30 08:14:58;;;;;;;5.88;2.10;;;;;;;20.01;35.39;102546.28;5034797;28;20021;-64
2022/04/30 08:17:23;;;;;;;4.47;2.05;;;;;;;20.61;34.26;102533.97;5033733;28;20071;-63
2022/04/30 08:19:49;;;;;;;5.57;2.45;;;;;;;21.12;34.06;102519.75;5033350;28;20159;-64
2022/04/30 08:22:14;;;;;;;5.82;2.28;;;;;;;21.57;34.02;102528.66;5034424;28;20020;-65
2022/04/30 08:24:40;;;;;;;4.25;2.40;;;;;;;21.50;34.58;102526.72;5034687;28;20402;-64
2022/04/30 08:27:05;;;;;;;4.72;2.85;;;;;;;21.63;34.02;102522.56;5034917;28;20104;-63
2022/04/30 08:29:31;;;;;;;3.13;2.20;;;;;;;22.35;33.61;102508.47;5034343;28;20060;-65
2022/04/30 08:31:56;;;;;;;4.68;2.65;;;;;;;22.51;33.58;102519.44;5034298;28;20044;-64
2022/04/30 08:34:21;;;;;;;6.03;2.95;;;;;;;22.52;33.73;102515.72;5034270;28;20056;-64
2022/04/30 08:36:47;;;;;;;4.45;2.13;;;;;;;22.56;33.64;102517.06;5034020;28;20033;-64
2022/04/30 08:39:12;;;;;;;4.88;2.85;;;;;;;22.39;33.39;102518.03;5033820;28;20481;-63
2022/04/30 08:41:41;;;;;;;5.97;3.67;;;;;;;22.19;33.92;102522.06;5034308;28;20533;-64
2022/04/30 08:44:07;;;;;;;5.35;2.42;;;;;;;22.03;34.17;102524.69;5033932;28;20475;-63
2022/04/30 08:46:32;;;;;;;9.77;2.97;;;;;;;21.87;34.14;102519.16;5016065;28;20039;-64
2022/04/30 08:48:59;;;;;;;7.85;2.72;;;;;;;21.88;33.77;102518.13;5034102;28;20425;-64
2022/04/30 08:51:24;;;;;;;6.85;3.38;;;;;;;22.38;33.75;102510.88;5033914;28;20029;-64
2022/04/30 08:53:50;;;;;;;5.43;2.55;;;;;;;22.94;32.65;102514.81;5034277;28;20029;-64
2022/04/30 08:56:15;;;;;;;4.35;2.05;;;;;;;22.73;32.39;102520.72;5033682;28;20035;-63
2022/04/30 08:58:40;;;;;;;3.60;2.13;;;;;;;22.78;32.82;102514.78;5034205;28;20025;-64
2022/04/30 09:01:09;;;;;;;2.20;1.80;;;;;;;22.74;31.88;102513.41;5033847;28;20083;-64
2022/04/30 09:03:36;;;;;;;2.63;1.70;;;;;;;23.41;32.20;102501.34;5034177;28;20036;-64
2022/04/30 09:06:03;;;;;;;2.13;1.45;;;;;;;23.78;31.42;102505.22;5034009;28;20386;-64
2022/04/30 09:08:28;;;;;;;2.20;1.65;;;;;;;23.73;31.77;102496.66;5053098;28;20028;-64
2022/04/30 09:11:07;;;;;;;2.92;2.20;;;;;;;23.42;31.12;102495.69;5038178;28;20032;-63
2022/04/30 09:13:43;;;;;;;7.25;2.40;;;;;;;23.49;31.69;102488.50;5058102;28;20056;-64
2022/04/30 09:16:20;;;;;;;5.13;1.92;;;;;;;23.99;30.34;102495.56;5058038;28;20035;-63
2022/04/30 09:18:46;;;;;;;2.50;1.83;;;;;;;24.48;30.50;102490.78;5041344;28;20100;-64
2022/04/30 09:21:16;;;;;;;1.92;1.70;;;;;;;24.98;30.19;102479.34;5037815;28;20032;-64
2022/04/30 09:23:42;;;;;;;7.28;1.75;;;;;;;25.46;29.66;102478.94;5037684;28;20063;-63
2022/04/30 09:26:07;;;;;;;2.80;1.92;;;;;;;25.96;29.40;102473.56;5037630;28;20083;-63
2022/04/30 09:28:34;;;;;;;2.85;2.15;;;;;;;26.46;29.15;102469.19;5037212;28;20033;-63
2022/04/30 09:31:11;;;;;;;3.17;1.90;;;;;;;26.70;28.80;102467.97;5037339;28;20376;-64
2022/04/30 09:33:38;;;;;;;7.75;1.73;;;;;;;26.76;28.85;102475.44;5037059;28;20453;-64
2022/04/30 09:39:13;;;;;;;1.58;1.48;;;;;;;26.38;28.59;102469.31;4945332;29;20059;-64
2022/04/30 09:41:39;;;;;;;3.30;2.10;;;;;;;26.74;28.46;102467.41;5006976;28;20041;-64
2022/04/30 09:44:06;;;;;;;2.10;1.88;;;;;;;27.01;28.08;102461.16;5036839;28;20049;-63
2022/04/30 09:46:38;;;;;;;3.40;1.60;;;;;;;27.29;27.62;102465.81;5036774;28;20021;-63
2022/04/30 09:54:36;;;;;;;3.10;2.92;;;;;;;28.98;26.00;102448.47;5021980;28;20067;-64
2022/04/30 09:57:01;;;;;;;4.70;2.72;;;;;;;29.85;26.03;102445.47;5036691;28;20436;-64
2022/04/30 09:59:28;;;;;;;2.05;1.60;;;;;;;31.11;25.11;102442.69;5036396;28;20151;-65
2022/04/30 10:01:54;;;;;;;3.78;1.80;;;;;;;32.60;23.21;102445.97;5019087;28;20471;-65
2022/04/30 10:04:19;;;;;;;3.60;1.75;;;;;;;32.71;22.67;102444.31;5018846;28;20032;-65
2022/04/30 10:06:48;;;;;;;3.47;2.03;;;;;;;32.24;23.22;102449.66;5036461;28;20040;-64
2022/04/30 10:09:18;;;;;;;3.65;1.90;;;;;;;31.88;23.74;102443.25;5002792;28;20122;-63
2022/04/30 10:11:56;;;;;;;3.50;1.80;;;;;;;31.60;24.13;102441.00;5018732;28;20088;-64
2022/04/30 10:14:59;;;;;;;3.03;2.13;;;;;;;30.71;24.26;102432.13;5036476;28;20029;-64
2022/04/30 10:17:26;;;;;;;3.60;2.17;;;;;;;30.50;23.82;102436.94;4989895;28;20121;-64
2022/04/30 10:20:09;;;;;;;4.88;2.50;;;;;;;30.84;23.73;102435.66;5036465;28;20030;-63
2022/04/30 10:22:35;;;;;;;2.13;1.85;;;;;;;31.20;23.44;102429.41;5035228;28;20071;-65
2022/04/30 10:25:01;;;;;;;2.13;1.63;;;;;;;31.28;23.53;102433.81;5035886;28;20049;-65
2022/04/30 10:27:44;;;;;;;3.90;1.55;;;;;;;30.76;23.65;102435.06;5018309;28;20034;-65
2022/04/30 10:30:24;;;;;;;2.30;2.05;;;;;;;31.31;22.60;102425.91;5035793;28;20033;-64
2022/04/30 10:33:00;;;;;;;2.20;1.50;;;;;;;31.74;22.66;102419.53;5036023;28;20129;-65
2022/04/30 10:35:37;;;;;;;3.50;2.70;;;;;;;32.05;22.20;102419.41;5051178;28;20547;-65
2022/04/30 10:38:06;;;;;;;1.83;1.60;;;;;;;32.39;22.10;102413.16;5035590;28;20045;-65
2022/04/30 10:40:39;;;;;;;1.27;1.23;;;;;;;32.79;21.07;102414.28;5018194;28;20034;-64
2022/04/30 10:43:16;;;;;;;2.72;1.70;;;;;;;32.37;22.08;102415.31;5035782;28;20025;-64
2022/04/30 10:45:42;;;;;;;3.45;1.50;;;;;;;32.48;21.72;102411.75;5035678;28;20029;-65
2022/04/30 10:48:07;;;;;;;1.90;1.70;;;;;;;32.90;21.54;102403.44;5035155;28;20035;-65
2022/04/30 10:50:33;;;;;;;2.63;1.63;;;;;;;33.16;20.74;102394.69;5018274;28;20079;-64
2022/04/30 10:53:00;;;;;;;3.60;2.85;;;;;;;33.46;21.04;102397.34;5052548;28;20104;-65
2022/04/30 10:55:26;;;;;;;2.65;1.70;;;;;;;33.72;20.43;102394.06;5037447;28;20025;-64
2022/04/30 10:57:53;;;;;;;4.13;2.17;;;;;;;33.98;20.33;102391.56;5018375;28;20109;-65
2022/04/30 11:00:21;;;;;;;4.40;1.90;;;;;;;33.88;21.08;102388.59;5017827;28;20518;-65
2022/04/30 11:02:47;;;;;;;1.73;1.20;;;;;;;33.54;21.21;102389.47;5035639;28;20560;-65
2022/04/30 11:05:22;;;;;;;5.47;1.98;;;;;;;33.48;20.39;102381.25;5035489;28;20041;-64
2022/04/30 11:07:47;;;;;;;2.78;1.67;;;;;;;33.81;19.88;102385.09;5035301;28;20034;-65
2022/04/30 11:10:13;;;;;;;2.55;1.52;;;;;;;34.04;20.80;102386.13;5050811;28;20033;-64
2022/04/30 11:12:38;;;;;;;4.00;1.70;;;;;;;34.19;20.08;102372.56;5035632;28;20034;-65
2022/04/30 11:15:04;;;;;;;2.72;1.60;;;;;;;34.27;19.43;102374.94;5034979;28;20033;-66
2022/04/30 11:17:29;;;;;;;3.35;1.70;;;;;;;34.34;19.37;102372.84;5017349;28;20044;-64
2022/04/30 11:19:55;;;;;;;2.15;1.55;;;;;;;34.46;19.75;102354.97;5017424;28;20025;-66
2022/04/30 11:22:22;;;;;;;1.98;1.77;;;;;;;34.57;19.56;102361.59;5035180;28;20447;-66
2022/04/30 11:24:47;;;;;;;1.35;1.25;;;;;;;34.66;19.05;102365.66;5035164;28;20514;-66
2022/04/30 11:27:12;;;;;;;2.92;1.55;;;;;;;34.81;18.88;102349.22;5034880;28;20029;-65
2022/04/30 11:29:52;;;;;;;3.85;1.90;;;;;;;34.97;19.29;102351.16;5035020;28;20078;-65
2022/04/30 11:32:22;;;;;;;1.30;1.20;;;;;;;34.85;19.67;102347.59;5035142;28;20018;-66
2022/04/30 11:34:52;;;;;;;3.55;1.55;;;;;;;34.76;18.74;102337.97;5016372;28;20037;-65
2022/04/30 11:37:18;;;;;;;2.00;1.77;;;;;;;34.90;19.61;102342.13;5016958;28;20046;-65
2022/04/30 11:39:43;;;;;;;2.35;1.20;;;;;;;33.81;19.73;102329.47;5017153;28;20071;-67
2022/04/30 11:42:09;;;;;;;3.80;1.63;;;;;;;32.91;20.00;102327.38;5034921;28;20164;-65
2022/04/30 11:44:35;;;;;;;5.13;1.92;;;;;;;32.10;20.57;102333.56;5016951;28;20113;-66
2022/04/30 11:47:00;;;;;;;4.60;1.75;;;;;;;31.39;20.75;102333.31;5034662;28;20613;-66
2022/04/30 11:49:26;;;;;;;2.78;2.13;;;;;;;30.74;21.12;102332.03;5034541;28;20455;-66
2022/04/30 11:51:54;;;;;;;3.25;2.40;;;;;;;30.26;21.07;102327.06;5034620;28;20116;-67
2022/04/30 11:54:25;;;;;;;8.70;2.00;;;;;;;29.84;21.71;102336.00;5034360;28;20036;-65
2022/04/30 11:56:52;;;;;;;2.38;1.88;;;;;;;29.45;21.42;102339.72;5034792;28;20028;-65